Decoded Metar for KFDK (FREDERICK in MD, USA) (IATA:FDK) | Meteo·Mobile Aviation Weather
aviador You're here:

KFDK Decoded Metar

FREDERICK in MD, USA
Report Time2018-10-20 05:05:00
UTC Time2018-10-20 05:21:18
Flight Rules vfr VFR
Wind200° at 07 kt
W.Decomp.*RWY 23: 6.5 kt HW 2.6 kt LCW
RWY 12: 0.2 kt HW 7.0 kt RCW
W.Rank200° ranks 1
Current wind is above 200° avg. (6.6)
Visibility9999 m
Phenomena:Light Rain
Clouds:Broken 080 Hf
Overcast 110 Hf
Expected CloudBase > 1,200 ft AGL from Temp-Dew spread
Ceiling8,000 ft
Temp13°C (ISA -1)
Dew Point10°C (82% RH)
AAT10.5°C
QNH1013 hPa
Density Alt302 ft
Elevation302 ft
Report Wrong Elevation
Raw Report
KFDK 200505Z AUTO 20007KT 10SM -RA BKN080 OVC110 13/10 A2992 RMK
AO2=

Extra information for KFDK:More info

Metar Taf Metar & Taf Last 4 Metars F.Rules Stats Wind Profile Meteogram Temp Stats Airport Information Weather charts Add Link Nearby VenuesMetar ALERT Operation Metar Decoded Social comments

AIRNAV info for KFDK